EDT,Max TemperatureF,Mean TemperatureF,Min TemperatureF,Max Dew PointF,MeanDew PointF,Min DewpointF,Max Humidity, Mean Humidity, Min Humidity, Max Sea Level PressureIn, Mean Sea Level PressureIn, Min Sea Level PressureIn, Max VisibilityMiles, Mean VisibilityMiles, Min VisibilityMiles, Max Wind SpeedMPH, Mean Wind SpeedMPH, Max Gust SpeedMPH,PrecipitationIn, CloudCover, Events, WindDirDegrees
2012-7-1,96,83,70,66,62,57,78,51,28,29.89,29.82,29.78,10,10,2,16,3,22,0.00,0,,280
2012-7-2,88,77,66,58,55,52,70,49,29,29.95,29.92,29.88,10,10,10,13,2,21,0.00,0,,329
2012-7-3,91,78,64,62,58,54,80,51,29,29.99,29.92,29.84,10,10,10,12,2,20,0.00,1,,293
2012-7-4,95,82,71,69,66,62,91,59,38,29.87,29.81,29.73,10,9,4,12,2,16,0.08,2,Rain,299
2012-7-5,95,84,73,70,63,50,76,50,23,29.89,29.79,29.74,10,10,9,12,3,20,0.00,0,,317
2012-7-6,93,80,66,65,59,47,90,53,20,29.96,29.91,29.86,10,10,10,7,1,,0.00,1,,303
2012-7-7,97,85,75,68,65,62,71,54,33,29.88,29.85,29.80,10,10,10,12,3,21,0.00,1,,320
2012-7-8,91,82,72,72,64,57,94,61,31,29.90,29.86,29.82,10,9,2,8,2,16,0.25,3,Rain,324
2012-7-9,88,78,69,59,55,50,68,46,29,29.99,29.94,29.89,10,10,10,7,3,,0.00,2,,60
2012-7-10,88,76,64,62,55,48,73,49,27,30.11,30.04,29.99,10,10,10,10,3,16,0.00,2,,81
2012-7-11,87,77,68,65,59,54,81,56,34,30.21,30.16,30.11,10,10,10,12,3,,0.00,5,,147
2012-7-12,91,77,64,62,58,54,84,54,31,30.23,30.19,30.13,10,10,10,13,2,21,0.00,1,,206
2012-7-13,89,80,70,67,62,58,71,56,39,30.22,30.19,30.15,10,10,10,5,0,,0.00,2,,230
2012-7-14,87,76,69,68,63,59,90,64,44,30.23,30.19,30.15,10,10,7,9,2,,0.04,5,Rain,244
2012-7-15,90,80,72,74,69,64,91,72,52,30.17,30.06,29.94,10,10,5,7,1,,0.09,4,Rain,220
2012-7-16,91,80,70,69,67,64,90,66,41,29.95,29.88,29.81,10,10,9,10,3,,0.00,1,,300
2012-7-17,96,82,69,68,64,61,81,53,32,29.88,29.82,29.75,10,10,9,10,3,21,0.00,0,,255
2012-7-18,102,88,75,73,70,66,91,70,32,29.91,29.84,29.77,10,8,2,12,3,23,0.06,2,Rain,215
2012-7-19,77,73,71,72,64,55,94,74,48,30.03,29.96,29.89,10,8,3,12,2,16,0.01,6,Rain,78
2012-7-20,72,67,62,64,62,60,94,88,71,30.09,30.03,29.96,10,7,2,12,5,21,0.54,8,Rain,66
2012-7-21,81,71,62,61,57,48,93,66,32,30.15,30.10,30.07,10,10,10,9,2,,0.00,5,,126
2012-7-22,84,73,62,62,60,58,90,64,43,30.19,30.15,30.11,10,10,10,10,2,17,0.00,3,,209
2012-7-23,88,78,69,71,66,62,90,73,55,30.13,30.01,29.83,10,10,7,7,1,,0.12,2,Rain,284
2012-7-24,93,80,70,72,66,57,91,63,35,29.80,29.70,29.61,10,9,2,15,4,26,0.05,1,Rain,314
2012-7-25,86,74,62,58,53,49,67,47,31,29.93,29.86,29.79,10,10,10,10,4,,0.00,0,,320
2012-7-26,90,79,68,72,66,57,94,75,53,29.82,29.73,29.63,10,9,1,9,2,21,0.46,4,Rain,204
2012-7-27,88,80,71,73,69,66,94,77,48,29.88,29.77,29.68,10,10,7,9,2,,0.01,3,Rain,276
2012-7-28,79,74,69,72,69,66,100,89,78,29.97,29.92,29.88,10,7,0,13,4,17,1.65,7,Fog-Rain,73
2012-7-29,82,74,68,67,66,64,93,79,56,30.07,30.00,29.94,10,10,9,7,1,,0.00,7,,91
2012-7-30,84,75,68,67,65,63,94,76,52,30.14,30.10,30.06,10,10,9,13,2,17,0.00,5,,115
2012-7-31,82,72,66,66,64,62,94,75,56,30.11,30.03,29.93,10,10,10,7,1,,0.00,5,,82